Latest Weather Observations for Taree Airport

IDN60801

Issued at 8:03 pm EST Friday 29 July 2016 (issued every 30 minutes, with the page automatically refreshed every 10 minutes)

About weather observations | Map of weather stations | Latest weather observations for NSW | Other Formats
Station Details ID: 060141 Name: TAREE AIRPORT AWS Lat: -31.89 Lon: 152.51 Height: 8.0 m
Data from the previous 72 hours. | See also: Recent months at Taree Airport
Date/Time
EST
Temp
°C
App
Temp
°C
Dew
Point
°C
Rel
Hum
%
Delta-T
°C
Wind Press
QNH
hPa
Press
MSL
hPa
Rain since
9am
mm
Dir  Spd
km/h
Gust
km/h
Spd
kts
Gust
kts
29/08:00pm 9.2 8.4 8.3 94 0.4 W 2 7 1 4 1019.6 1019.6 0.0
29/07:30pm 10.4 8.9 9.3 93 0.5 NW 7 9 4 5 1019.5 1019.5 0.0
29/07:00pm 11.2 9.8 9.5 89 0.9 WNW 7 9 4 5 1019.2 1019.2 0.0
29/06:30pm 12.3 12.5 10.7 90 0.8 CALM 0 0 0 0 1018.9 1018.9 0.0
29/06:00pm 13.0 13.2 10.5 85 1.3 CALM 0 0 0 0 1018.6 1018.6 0.0
29/05:30pm 13.6 12.4 10.2 80 1.8 ESE 7 7 4 4 1018.3 1018.3 0.0
29/05:00pm 14.7 13.5 10.3 75 2.3 ESE 7 9 4 5 1018.3 1018.3 0.0
29/04:30pm 16.0 14.0 10.3 69 3.0 E 11 15 6 8 1018.0 1018.0 0.0
29/04:00pm 16.4 14.1 10.5 68 3.1 E 13 17 7 9 1018.1 1018.1 0.0
29/03:30pm 16.7 14.4 10.3 66 3.4 E 13 19 7 10 1018.2 1018.2 0.0
29/03:00pm 17.3 14.6 10.2 63 3.8 E 15 20 8 11 1018.4 1018.4 0.0
29/02:30pm 17.4 14.5 9.8 61 4.0 E 15 20 8 11 1018.6 1018.6 0.0
29/02:00pm 17.3 14.8 9.7 61 4.0 E 13 19 7 10 1018.8 1018.8 0.0
29/01:30pm 17.2 14.8 10.1 63 3.8 ESE 13 19 7 10 1019.2 1019.2 0.0
29/01:00pm 16.7 14.1 9.4 62 3.8 E 13 19 7 10 1019.7 1019.7 0.0
29/12:30pm 17.0 13.4 8.4 57 4.4 E 17 20 9 11 1020.1 1020.1 0.0
29/12:00pm 17.2 15.6 8.6 57 4.4 ENE 7 17 4 9 1020.6 1020.6 0.0
29/11:30am 16.4 13.5 8.1 58 4.2 E 13 19 7 10 1021.3 1021.3 0.0
29/11:00am 16.0 13.6 7.2 56 4.3 E 9 13 5 7 1021.7 1021.7 0.0
29/10:30am 15.1 13.0 6.7 57 4.1 ENE 7 11 4 6 1022.1 1022.1 0.0
29/10:00am 13.3 11.4 6.6 64 3.2 S 6 7 3 4 1022.7 1022.7 0.0
29/09:30am 11.6 9.2 5.3 65 2.9 W 7 9 4 5 1022.8 1022.8 0.0
29/09:00am 10.3 7.6 5.7 73 2.1 W 9 11 5 6 1022.9 1022.9 0.0
29/08:30am 8.2 5.4 5.1 81 1.4 W 9 11 5 6 1023.0 1023.0 0.0
29/08:00am 6.4 3.5 4.4 87 0.9 W 9 13 5 7 1022.9 1022.9 0.0
29/07:30am 5.7 2.8 4.5 92 0.5 W 9 11 5 6 1022.9 1022.9 0.0
29/07:00am 4.8 2.3 4.5 98 0.1 W 7 9 4 5 1022.9 1022.9 0.0
29/06:30am 2.1 -1.0 1.4 95 0.3 NW 7 7 4 4 1022.8 1022.8 0.0
29/06:00am 5.0 2.4 4.1 94 0.4 W 7 9 4 5 1022.6 1022.6 0.0
29/05:30am 4.3 1.7 4.2 99 0.0 NW 7 9 4 5 1022.5 1022.5 0.0
29/05:00am 2.3 0.6 2.0 98 0.1 CALM 0 0 0 0 1022.3 1022.3 0.0
29/04:30am 3.5 2.1 3.4 99 0.0 CALM 0 4 0 2 1022.1 1022.1 0.0
29/04:00am 2.6 -0.4 2.3 98 0.1 NNW 7 9 4 5 1022.1 1022.1 0.0
29/03:30am 3.5 0.9 3.4 99 0.0 WNW 6 11 3 6 1022.1 1022.1 0.0
29/03:04am 3.7 1.2 3.6 99 0.0 SSW 6 7 3 4 1022.3 1022.3 0.0
29/03:00am 3.6 1.1 3.5 99 0.0 SSW 6 7 3 4 1022.3 1022.3 0.0
29/02:40am 3.3 1.8 3.0 98 0.1 CALM 0 0 0 0 1022.3 1022.3 0.0
29/02:30am 3.9 2.1 3.6 98 0.1 NW 2 6 1 3 1022.3 1022.3 0.0
29/02:00am 3.8 2.0 3.4 97 0.2 W 2 6 1 3 1022.0 1022.0 0.0
29/01:30am 3.7 1.1 3.4 98 0.1 NNW 6 7 3 4 1022.1 1022.1 0.0
29/01:00am 3.3 1.7 2.3 93 0.4 CALM 0 0 0 0 1022.2 1022.2 0.0
29/12:30am 4.2 2.8 3.3 94 0.4 CALM 0 0 0 0 1022.3 1022.3 0.0
29/12:00am 5.8 4.5 4.1 89 0.7 CALM 0 0 0 0 1022.4 1022.4 0.0
 
Date/Time
EST
Temp
°C
App
Temp
°C
Dew
Point
°C
Rel
Hum
%
Delta-T
°C
Wind Press
QNH
hPa
Press
MSL
hPa
Rain since
9am
mm
Dir  Spd
km/h
Gust
km/h
Spd
kts
Gust
kts
28/11:30pm 7.0 4.9 5.9 93 0.5 WSW 6 9 3 5 1022.3 1022.3 0.0
28/11:00pm 6.5 5.5 5.8 95 0.3 CALM 0 0 0 0 1022.5 1022.5 0.0
28/10:30pm 6.5 4.1 5.3 92 0.5 W 7 9 4 5 1022.6 1022.6 0.0
28/10:00pm 6.2 3.9 5.0 92 0.5 NNW 6 7 3 4 1022.6 1022.6 0.0
28/09:30pm 6.4 5.4 5.5 94 0.4 CALM 0 0 0 0 1022.8 1022.8 0.0
28/09:00pm 7.6 6.8 6.4 92 0.5 CALM 0 0 0 0 1022.8 1022.8 0.0
28/08:30pm 7.4 6.4 5.5 88 0.8 CALM 0 0 0 0 1022.8 1022.8 0.0
28/08:00pm 8.4 6.3 6.0 85 1.1 NW 6 7 3 4 1022.9 1022.9 0.0
28/07:30pm 9.7 7.9 7.0 83 1.3 WNW 6 6 3 3 1022.8 1022.8 0.0
28/07:00pm 10.8 10.2 7.3 79 1.7 CALM 0 0 0 0 1022.6 1022.6 0.0
28/06:30pm 9.6 7.6 4.6 71 2.2 NNE 4 6 2 3 1022.4 1022.4 0.0
28/06:00pm 12.4 11.6 6.5 67 2.8 CALM 0 0 0 0 1022.1 1022.1 0.0
28/05:30pm 12.6 11.3 6.0 64 3.1 E 2 6 1 3 1021.8 1021.8 0.0
28/05:00pm 14.6 12.0 6.2 57 4.0 E 9 11 5 6 1021.6 1021.6 0.0
28/04:30pm 15.9 13.3 6.3 53 4.7 ENE 9 13 5 7 1021.5 1021.5 0.0
28/04:00pm 16.7 13.7 6.2 50 5.1 E 11 17 6 9 1021.4 1021.4 0.0
28/03:30pm 17.2 13.7 5.5 46 5.6 ESE 13 17 7 9 1021.3 1021.3 0.0
28/03:00pm 17.6 14.1 5.5 45 5.8 ESE 13 17 7 9 1021.4 1021.4 0.0
28/02:30pm 18.5 15.4 1.5 32 7.6 SSW 7 11 4 6 1021.3 1021.3 0.0
28/02:00pm 18.1 14.7 2.0 34 7.3 WSW 9 13 5 7 1021.4 1021.4 0.0
28/01:30pm 18.3 15.4 2.6 35 7.2 NW 7 11 4 6 1021.6 1021.6 0.0
28/01:00pm 17.8 15.0 2.9 37 6.8 NW 7 13 4 7 1022.0 1022.0 0.0
28/12:30pm 17.6 14.5 3.5 39 6.6 SSW 9 15 5 8 1022.6 1022.6 0.0
28/12:00pm 17.3 13.7 3.2 39 6.5 S 11 17 6 9 1023.3 1023.3 0.0
28/11:30am 16.5 12.5 2.9 40 6.2 SW 13 19 7 10 1023.8 1023.8 0.0
28/11:00am 16.4 12.5 3.5 42 5.9 SW 13 19 7 10 1024.4 1024.4 0.0
28/10:30am 15.7 12.0 4.4 47 5.3 WSW 13 17 7 9 1024.6 1024.6 0.0
28/10:00am 14.7 11.0 4.7 51 4.6 W 13 19 7 10 1024.6 1024.6 0.0
28/09:30am 13.6 9.9 4.5 54 4.2 WSW 13 17 7 9 1024.7 1024.7 0.0
28/09:00am 12.1 8.8 4.3 59 3.5 W 11 13 6 7 1024.6 1024.6 0.0
28/08:30am 10.4 7.4 4.3 66 2.7 WSW 9 13 5 7 1024.3 1024.3 0.0
28/08:00am 9.0 6.0 4.0 71 2.2 WSW 9 13 5 7 1024.2 1024.2 0.0
28/07:30am 4.5 1.6 1.7 82 1.1 N 6 9 3 5 1023.9 1023.9 0.0
28/07:00am 6.9 3.7 2.8 75 1.7 WSW 9 11 5 6 1023.5 1023.5 0.0
28/06:30am 5.7 4.2 3.2 84 1.0 CALM 0 0 0 0 1023.0 1023.0 0.0
28/06:00am 4.0 1.7 0.3 77 1.4 NNW 2 9 1 5 1022.8 1022.8 0.0
28/05:30am 7.4 4.2 3.1 74 1.8 WSW 9 11 5 6 1022.5 1022.5 0.0
28/05:00am 7.3 4.1 2.8 73 1.9 SW 9 13 5 7 1022.0 1022.0 0.0
28/04:30am 7.7 4.9 3.2 73 1.9 W 7 7 4 4 1021.7 1021.7 0.0
28/04:00am 5.1 2.7 1.9 80 1.3 WNW 4 7 2 4 1021.6 1021.6 0.0
28/03:30am 7.1 4.3 3.3 77 1.6 NNW 7 7 4 4 1021.5 1021.5 0.0
28/03:00am 4.5 2.4 1.5 81 1.2 SSW 2 7 1 4 1021.5 1021.5 0.0
28/02:30am 7.3 4.0 4.4 82 1.3 SW 11 13 6 7 1021.4 1021.4 0.0
28/02:00am 6.3 3.5 2.2 75 1.7 NNE 6 7 3 4 1021.3 1021.3 0.0
28/01:49am 5.5 2.2 -0.1 67 2.1 NNW 7 11 4 6 1021.2 1021.2 0.0
28/01:30am 10.7 6.4 3.3 60 3.2 WSW 15 19 8 10 1021.1 1021.1 0.0
28/01:00am 10.0 6.2 3.7 65 2.7 SW 13 19 7 10 1021.0 1021.0 0.0
28/12:30am 9.2 5.7 3.6 68 2.4 SW 11 15 6 8 1020.9 1020.9 0.0
28/12:00am 10.7 8.3 4.2 64 2.9 W 6 15 3 8 1020.6 1020.6 0.0
 
Date/Time
EST
Temp
°C
App
Temp
°C
Dew
Point
°C
Rel
Hum
%
Delta-T
°C
Wind Press
QNH
hPa
Press
MSL
hPa
Rain since
9am
mm
Dir  Spd
km/h
Gust
km/h
Spd
kts
Gust
kts
27/11:30pm 7.6 5.6 2.1 68 2.3 W 2 9 1 5 1020.6 1020.6 0.0
27/11:00pm 12.2 9.1 3.7 56 3.8 WSW 9 13 5 7 1020.2 1020.2 0.0
27/10:30pm 12.5 8.8 4.2 57 3.8 WSW 13 17 7 9 1019.9 1019.9 0.0
27/10:00pm 11.0 8.0 4.0 62 3.1 WSW 9 13 5 7 1019.8 1019.8 0.0
27/09:30pm 13.1 10.1 4.0 54 4.1 W 9 15 5 8 1019.7 1019.7 0.0
27/09:00pm 13.3 9.5 3.9 53 4.2 W 13 17 7 9 1019.5 1019.5 0.0
27/08:30pm 13.5 10.1 4.1 53 4.3 WNW 11 15 6 8 1019.1 1019.1 0.0
27/08:00pm 12.9 10.4 4.6 57 3.8 W 7 11 4 6 1018.8 1018.8 0.0
27/07:30pm 12.4 9.9 4.9 60 3.4 WSW 7 9 4 5 1018.5 1018.5 0.0
27/07:00pm 14.0 11.0 4.0 51 4.6 W 9 13 5 7 1018.1 1018.1 0.0
27/06:30pm 14.7 12.1 4.1 49 4.9 NW 7 13 4 7 1017.4 1017.4 0.0
27/06:00pm 15.7 12.6 3.5 44 5.6 W 9 13 5 7 1017.0 1017.0 0.0
27/05:30pm 16.6 12.3 3.3 41 6.1 WNW 15 30 8 16 1016.4 1016.4 0.0
27/05:00pm 17.4 12.7 3.3 39 6.5 W 17 24 9 13 1015.8 1015.8 0.0
27/04:30pm 18.4 14.0 2.7 35 7.2 W 15 28 8 15 1015.5 1015.5 0.0
27/04:00pm 18.9 13.1 2.3 33 7.6 W 22 35 12 19 1014.7 1014.7 0.0
27/03:30pm 19.3 13.1 2.2 32 7.8 W 24 48 13 26 1014.5 1014.5 0.0
27/03:23pm 19.2 12.2 2.1 32 7.8 WNW 28 48 15 26 1014.3 1014.3 0.0
27/03:00pm 19.4 12.9 2.7 33 7.7 WNW 26 44 14 24 1014.2 1014.2 0.0
27/02:33pm 19.3 11.7 2.6 33 7.7 WNW 32 50 17 27 1014.0 1014.0 0.0
27/02:30pm 19.6 12.4 2.9 33 7.8 WNW 30 46 16 25 1014.1 1014.1 0.0
27/02:00pm 19.2 12.3 2.6 33 7.7 WNW 28 50 15 27 1014.0 1014.0 0.0
27/01:44pm 19.2 11.4 2.6 33 7.7 W 33 52 18 28 1014.0 1014.0 0.0
27/01:30pm 19.1 12.6 2.5 33 7.7 W 26 39 14 21 1014.1 1014.1 0.0
27/01:00pm 18.9 12.1 3.1 35 7.4 W 28 46 15 25 1014.4 1014.4 0.0
27/12:30pm 19.3 11.7 3.1 34 7.6 WNW 32 50 17 27 1014.3 1014.3 0.0
27/12:27pm 19.0 12.1 2.8 34 7.5 WNW 28 50 15 27 1014.3 1014.3 0.0
27/12:00pm 18.9 12.2 3.9 37 7.1 WNW 28 37 15 20 1014.5 1014.5 0.0
27/11:30am 17.8 12.2 3.3 38 6.7 WNW 22 32 12 17 1015.0 1015.0 0.0
27/11:00am 18.9 12.6 3.5 36 7.2 W 26 37 14 20 1015.1 1015.1 0.0
27/10:30am 17.8 13.3 4.0 40 6.5 W 17 26 9 14 1015.3 1015.3 0.0
27/10:00am 17.0 11.4 3.7 41 6.2 NW 22 30 12 16 1015.4 1015.4 0.0
27/09:30am 16.3 13.0 6.2 51 4.9 NW 13 24 7 13 1015.5 1015.5 0.0
27/09:00am 14.4 13.5 7.9 65 3.2 WSW 2 11 1 6 1015.8 1015.8 0.0
27/08:59am 14.3 13.7 8.9 70 2.7 SW 2 9 1 5 1015.8 1015.8 0.0
27/08:30am 9.3 7.4 6.6 83 1.3 NNW 6 11 3 6 1015.9 1015.9 0.0
27/08:25am 12.3 10.8 9.0 80 1.7 NNW 7 9 4 5 1015.9 1015.9 0.0
27/08:00am 7.1 5.6 6.8 98 0.1 SSW 4 9 2 5 1016.0 1016.0 0.0
27/07:30am 4.4 2.7 4.1 98 0.1 ENE 2 9 1 5 1015.8 1015.8 0.0
27/07:00am 3.0 1.0 2.3 95 0.3 NNE 2 7 1 4 1015.8 1015.8 0.0
27/06:30am 4.0 2.6 3.3 95 0.3 CALM 0 0 0 0 1015.5 1015.5 0.0
27/06:00am 3.9 2.0 2.6 91 0.5 W 2 7 1 4 1015.6 1015.6 0.0
27/05:30am 5.3 2.8 4.9 97 0.2 SW 7 11 4 6 1015.4 1015.4 0.0
27/05:00am 4.7 1.3 4.0 95 0.3 S 11 13 6 7 1015.3 1015.3 0.0
27/04:30am 5.2 2.7 4.5 95 0.3 W 7 9 4 5 1015.2 1015.2 0.0
27/04:00am 5.6 2.8 5.2 97 0.2 SSW 9 11 5 6 1014.8 1014.8 0.0
27/03:30am 5.1 2.6 3.9 92 0.5 N 6 7 3 4 1015.2 1015.2 0.0
27/03:00am 4.9 3.5 3.6 91 0.5 CALM 0 0 0 0 1015.6 1015.6 0.0
27/02:30am 6.0 3.6 5.1 94 0.4 SW 7 11 4 6 1015.6 1015.6 0.0
27/02:00am 5.6 3.7 4.9 95 0.3 NNW 4 7 2 4 1016.0 1016.0 0.0
27/01:30am 5.3 4.0 4.0 91 0.5 CALM 0 0 0 0 1016.2 1016.2 0.0
27/01:00am 6.4 4.8 4.4 87 0.9 W 2 7 1 4 1016.3 1016.3 0.0
27/12:30am 7.7 5.0 5.7 87 0.9 W 9 9 5 5 1016.4 1016.4 0.0
27/12:00am 7.1 4.4 5.7 91 0.6 W 9 13 5 7 1016.2 1016.2 0.0
 
Date/Time
EST
Temp
°C
App
Temp
°C
Dew
Point
°C
Rel
Hum
%
Delta-T
°C
Wind Press
QNH
hPa
Press
MSL
hPa
Rain since
9am
mm
Dir  Spd
km/h
Gust
km/h
Spd
kts
Gust
kts
26/11:30pm 7.4 4.8 6.0 91 0.6 W 9 11 5 6 1016.2 1016.2 0.0
26/11:00pm 7.9 5.7 6.2 89 0.8 W 7 9 4 5 1016.2 1016.2 0.0
26/10:30pm 7.4 5.0 5.2 86 1.0 WNW 7 9 4 5 1016.4 1016.4 0.0
26/10:00pm 8.8 6.7 6.6 86 1.0 SW 7 9 4 5 1016.2 1016.2 0.0
26/09:30pm 8.8 6.3 6.6 86 1.0 WNW 9 9 5 5 1016.2 1016.2 0.0
26/09:00pm 7.4 6.0 5.7 89 0.8 N 2 6 1 3 1016.2 1016.2 0.0
26/08:30pm 9.6 7.0 6.0 78 1.7 NW 9 13 5 7 1016.2 1016.2 0.0

Other Formats:

Comma delimited format used in spreadsheet applications
http://www.bom.gov.au/fwo/IDN60801/IDN60801.95784.axf

JavaScript Object Notation format (JSON) in row-major order
http://www.bom.gov.au/fwo/IDN60801/IDN60801.95784.json